Terminal Aerodrome Forecast
Issued by NWS Sioux Falls, SD

Home | Current Version | Previous Version | Text Only | Print | Product List | Glossary On
Versions: 1 2 3 4 5 6 7 8 9 10 11 12 13 14
589
FTUS43 KFSD 231722
TAFHON
TAF
KHON 231722Z 2318/2418 18018G26KT P6SM FEW250
     FM232100 18014G20KT P6SM SCT040
     FM240100 25009KT P6SM SCT090
     FM240200 31007KT P6SM SCT250
     FM241500 32010KT P6SM FEW150=

USA.gov is the U.S. government's official web portal to all federal, state and local government web resources and services.